Time;durP1;ratioP1;P1;durP2;ratioP2;P2;SDS_P1;SDS_P2;PMS_P1;PMS_P2;Temp;Humidity;BMP_temperature;BMP_pressure;BME280_temperature;BME280_humidity;BME280_pressure;Samples;Min_cycle;Max_cycle;Signal;HPM_P1;HPM_P2
2022/03/02 00:02:05;;;;;;;11.85;5.53;;;0.20;1.00;;;0.65;66.71;100409.03;5033405;27;129503;-85
2022/03/02 00:05:47;;;;;;;10.90;6.47;;;0.10;1.00;;;0.65;68.08;100397.53;5047215;27;129502;-84
2022/03/02 00:09:01;;;;;;;10.75;6.25;;;0.20;1.00;;;0.66;69.19;100393.84;5035382;27;117943;-85
2022/03/02 00:18:45;;;;;;;11.32;4.70;;;0.10;1.00;;;0.78;63.75;100377.84;5053188;27;129711;-85
2022/03/02 00:21:29;;;;;;;11.73;5.40;;;0.20;1.00;;;0.84;63.53;100379.63;5018691;27;119124;-84
2022/03/02 00:25:05;;;;;;;10.95;5.45;;;0.30;1.00;;;0.63;64.80;100383.59;5034618;27;113983;-88
2022/03/02 00:28:16;;;;;;;12.80;6.10;;;0.30;1.00;;;0.67;65.96;100374.91;5049946;27;129121;-85
2022/03/02 00:38:00;;;;;;;10.95;6.50;;;0.20;1.00;;;0.53;68.63;100366.25;5046502;27;115811;-84
2022/03/02 00:44:46;;;;;;;11.85;6.13;;;0.20;1.00;;;0.62;68.77;100361.38;5051701;27;128448;-81
2022/03/02 00:50:31;;;;;;;14.18;5.93;;;0.10;1.00;;;0.64;68.11;100362.00;5058393;27;114819;-84
2022/03/02 00:53:08;;;;;;;12.48;6.20;;;0.20;1.00;;;0.79;67.98;100361.59;5040281;27;129856;-84
2022/03/02 00:55:56;;;;;;;11.45;5.70;;;0.30;1.00;;;0.84;67.77;100350.22;5058420;27;129818;-83
2022/03/02 00:59:22;;;;;;;11.48;6.38;;;0.30;1.00;;;0.75;66.31;100349.75;5059298;27;118959;-85
2022/03/02 01:03:22;;;;;;;11.20;5.80;;;0.20;1.00;;;0.55;67.40;100347.31;5051747;27;114434;-83
2022/03/02 01:16:35;;;;;;;14.20;7.05;;;0.20;1.00;;;0.62;71.12;100333.88;5048506;27;114908;-83
2022/03/02 01:22:14;;;;;;;12.23;6.93;;;0.20;1.00;;;0.32;71.77;100326.63;5051036;27;129009;-82
2022/03/02 01:25:00;;;;;;;13.85;6.72;;;0.10;1.00;;;0.17;71.83;100321.66;5048333;27;118865;-81
2022/03/02 01:31:06;;;;;;;13.75;6.95;;;0.00;1.00;;;0.24;72.22;100317.06;5055369;27;129247;-83
2022/03/02 01:33:46;;;;;;;16.27;7.60;;;0.00;1.00;;;0.02;73.21;100313.19;5055089;27;130075;-83
2022/03/02 01:42:36;;;;;;;15.55;7.13;;;-0.30;1.00;;;-0.18;72.58;100314.22;5054195;27;129078;-83
2022/03/02 01:45:37;;;;;;;15.18;7.22;;;-0.30;1.00;;;-0.21;71.68;100315.47;5035242;27;129357;-85
2022/03/02 01:48:33;;;;;;;11.60;7.05;;;-0.30;1.00;;;0.05;71.16;100310.06;5022017;27;118484;-85
2022/03/02 01:54:27;;;;;;;14.70;7.30;;;-0.20;1.00;;;0.04;68.82;100300.47;5049084;27;129056;-84
2022/03/02 02:00:23;;;;;;;13.05;7.43;;;-0.20;1.00;;;-0.06;68.24;100300.97;5035472;27;118876;-84
2022/03/02 02:03:08;;;;;;;12.15;6.65;;;-0.20;1.00;;;-0.14;68.46;100309.25;5004657;27;114581;-83
2022/03/02 02:05:44;;;;;;;14.30;7.30;;;-0.20;1.00;;;-0.13;69.10;100297.56;5031464;27;129617;-84
2022/03/02 02:08:29;;;;;;;13.98;6.85;;;-0.20;1.00;;;-0.19;69.48;100291.25;5031553;27;129451;-84
2022/03/02 02:11:16;;;;;;;14.00;6.97;;;-0.20;1.00;;;-0.19;69.26;100291.25;5002609;27;119056;-83
2022/03/02 02:13:51;;;;;;;12.32;7.28;;;-0.20;1.00;;;-0.08;69.43;100285.19;5032653;27;114791;-84
2022/03/02 02:16:46;;;;;;;15.00;7.80;;;-0.20;1.00;;;-0.20;70.21;100284.28;5050422;27;129975;-83
2022/03/02 02:19:18;;;;;;;14.98;7.80;;;-0.20;1.00;;;-0.11;70.54;100282.97;5032268;27;128796;-85
2022/03/02 02:22:15;;;;;;;14.15;7.18;;;-0.30;1.00;;;0.04;70.84;100284.44;5046889;27;118188;-83
2022/03/02 02:25:29;;;;;;;13.13;6.60;;;-0.20;1.00;;;0.03;70.76;100274.78;5041463;27;115059;-86
2022/03/02 02:28:38;;;;;;;15.88;7.82;;;-0.20;1.00;;;0.14;70.27;100279.38;5050192;27;129210;-84
2022/03/02 02:34:49;;;;;;;;;;;-0.20;1.00;;;0.14;71.86;100263.38;5055005;27;118026;-82
2022/03/02 02:38:21;;;;;;;16.95;6.63;;;-0.20;1.00;;;0.34;71.47;100263.97;5041267;27;115104;-83
2022/03/02 02:41:01;;;;;;;15.82;7.53;;;-0.10;1.00;;;0.41;70.98;100265.72;5016924;27;127673;-84
2022/03/02 02:47:36;;;;;;;14.77;8.10;;;-0.20;1.00;;;0.45;69.36;100264.22;5071687;27;118189;-84
2022/03/02 02:57:17;;;;;;;16.45;7.72;;;-0.20;1.00;;;0.27;69.51;100265.88;5022674;28;129532;-83
2022/03/02 03:00:41;;;;;;;15.10;8.18;;;-0.20;1.00;;;0.40;69.78;100261.41;5015158;28;118404;-84
2022/03/02 03:03:39;;;;;;;14.40;7.60;;;-0.20;1.00;;;0.28;69.98;100253.34;5010840;28;113309;-81
2022/03/02 03:07:01;;;;;;;15.60;7.88;;;-0.20;1.00;;;0.16;70.50;100245.28;5038686;28;129312;-85
2022/03/02 03:10:04;;;;;;;14.45;8.18;;;-0.20;1.00;;;0.04;71.46;100247.09;5018801;28;127778;-84
2022/03/02 03:20:20;;;;;;;15.95;8.15;;;-0.20;1.00;;;-0.08;71.57;100226.50;5037724;28;130178;-83
2022/03/02 03:23:08;;;;;;;15.35;8.65;;;-0.20;1.00;;;0.23;70.93;100238.00;4998408;28;128131;-84
2022/03/02 03:26:12;;;;;;;19.20;8.98;;;-0.10;1.00;;;0.39;70.29;100238.41;4981275;28;116932;-86
2022/03/02 03:29:25;;;;;;;18.75;8.95;;;-0.10;1.00;;;0.29;70.46;100239.78;5041047;27;115055;-85
2022/03/02 03:32:20;;;;;;;16.35;8.55;;;-0.10;1.00;;;0.43;70.14;100235.06;5024871;28;128304;-85
2022/03/02 03:38:08;;;;;;;14.95;8.02;;;-0.10;1.00;;;0.10;71.32;100225.63;5022263;28;117587;-80
2022/03/02 03:45:05;;;;;;;16.10;8.82;;;-0.20;1.00;;;0.11;72.05;100231.78;5015446;28;129592;-85
2022/03/02 03:48:11;;;;;;;16.02;8.48;;;-0.10;1.00;;;0.28;71.50;100231.97;4995732;28;129398;-84
2022/03/02 03:51:14;;;;;;;15.63;8.57;;;-0.10;1.00;;;0.29;70.84;100226.41;5027149;28;119017;-84
2022/03/02 03:54:25;;;;;;;15.63;9.50;;;-0.10;1.00;;;0.23;71.01;100219.31;5011767;28;115325;-84
2022/03/02 03:57:11;;;;;;;23.50;12.15;;;-0.10;1.00;;;0.26;71.00;100218.06;4994151;28;129594;-83
2022/03/02 04:00:04;;;;;;;21.05;11.52;;;-0.10;1.00;;;-0.14;70.26;100218.53;5011627;28;128711;-84
2022/03/02 04:03:06;;;;;;;21.83;12.77;;;-0.10;1.00;;;-0.02;71.27;100219.41;5027919;28;117956;-83
2022/03/02 04:09:37;;;;;;;17.52;8.45;;;0.00;1.00;;;0.10;69.51;100217.63;4994258;28;129108;-85
2022/03/02 04:12:22;;;;;;;15.80;8.48;;;0.00;1.00;;;0.27;69.19;100223.16;4994099;28;127817;-83
2022/03/02 04:15:08;;;;;;;19.73;10.10;;;0.10;1.00;;;0.08;68.34;100219.72;5013429;28;118493;-84
2022/03/02 04:21:43;;;;;;;19.40;10.38;;;0.10;1.00;;;0.09;67.58;100218.66;5012252;28;128520;-84
2022/03/02 04:24:49;;;;;;;20.88;10.38;;;0.10;1.00;;;0.40;67.16;100218.69;5010534;28;127962;-83
2022/03/02 04:31:00;;;;;;;17.98;9.98;;;0.10;1.00;;;0.33;66.30;100192.91;4954783;28;114626;-84
2022/03/02 04:41:14;;;;;;;26.45;12.05;;;0.10;1.00;;;0.23;68.08;100197.94;5005949;28;118999;-85
2022/03/02 04:48:09;;;;;;;18.02;10.07;;;0.20;1.00;;;0.11;69.89;100205.94;4998589;28;128890;-82
2022/03/02 05:00:58;;;;;;;20.98;10.88;;;0.20;1.00;;;0.16;71.66;100197.25;4980004;28;129571;-87
2022/03/02 05:03:37;;;;;;;20.00;10.70;;;0.10;1.00;;;0.18;71.60;100200.50;4993335;28;130202;-87
2022/03/02 05:17:47;;;;;;;20.23;11.95;;;0.20;1.00;;;0.12;71.19;100186.19;4993438;28;127765;-87
2022/03/02 05:20:21;;;;;;;18.65;11.68;;;0.20;1.00;;;0.33;70.22;100179.53;4977467;28;118475;-86
2022/03/02 05:22:52;;;;;;;19.73;11.43;;;0.20;1.00;;;0.26;70.21;100180.69;5007937;28;116906;-87
2022/03/02 05:25:52;;;;;;;20.48;11.90;;;0.20;1.00;;;0.33;69.80;100187.56;4992818;28;129230;-87
2022/03/02 05:28:49;;;;;;;19.92;10.90;;;0.30;1.00;;;0.26;69.42;100199.38;4990597;28;127793;-86
2022/03/02 05:31:52;;;;;;;21.90;10.75;;;0.20;1.00;;;0.09;69.84;100201.84;4993321;28;118673;-87
2022/03/02 05:34:47;;;;;;;21.25;11.13;;;0.20;1.00;;;0.08;70.43;100205.53;4981505;28;115905;-87
2022/03/02 05:37:17;;;;;;;;;;;0.20;1.00;;;0.09;69.92;100196.50;4993157;28;129466;-87
2022/03/02 05:43:01;;;;;;;17.77;10.02;;;0.30;1.00;;;0.16;68.94;100197.25;4963362;28;118073;-86
2022/03/02 05:46:00;;;;;;;19.00;10.00;;;0.30;1.00;;;0.34;69.27;100199.88;5010335;28;114991;-88
2022/03/02 05:49:02;;;;;;;26.45;12.13;;;0.30;1.00;;;0.40;68.12;100197.34;4945213;28;129791;-86
2022/03/02 05:52:20;;;;;;;21.67;12.85;;;0.30;1.00;;;0.41;69.04;100193.63;4966508;28;128546;-87
2022/03/02 05:55:29;;;;;;;19.42;10.68;;;0.40;1.00;;;0.61;67.40;100194.16;4984219;28;117458;-86
2022/03/02 06:01:02;;;;;;;18.42;9.48;;;0.50;1.00;;;0.77;67.29;100187.31;5026828;27;128995;-86
2022/03/02 06:03:50;;;;;;;17.75;9.48;;;0.50;1.00;;;0.99;66.12;100190.25;5012277;28;128043;-85
2022/03/02 06:06:24;;;;;;;19.95;8.95;;;0.60;1.00;;;1.06;65.52;100182.94;5043984;27;119358;-85
2022/03/02 06:09:29;;;;;;;18.92;10.85;;;0.60;1.00;;;0.79;65.28;100184.41;5015172;27;114690;-87
2022/03/02 06:12:11;;;;;;;17.77;8.77;;;0.60;1.00;;;0.98;65.38;100188.66;5019746;27;128344;-85
2022/03/02 06:21:03;;;;;;;21.50;11.20;;;0.70;1.00;;;0.91;65.12;100179.09;5016255;27;114066;-87
2022/03/02 06:23:40;;;;;;;20.95;10.65;;;0.70;1.00;;;0.97;64.89;100181.66;5027758;27;129545;-86
2022/03/02 06:26:15;;;;;;;;;;;0.70;1.00;;;0.78;65.01;100177.44;5031298;27;128763;-85
2022/03/02 06:28:55;;;;;;;19.98;9.80;;;0.70;1.00;;;0.92;64.74;100173.53;5014510;27;118747;-84
2022/03/02 06:31:53;;;;;;;15.32;8.90;;;0.70;1.00;;;1.13;63.82;100168.66;5032662;27;114315;-85
2022/03/02 06:34:30;;;;;;;16.65;9.38;;;0.90;1.00;;;1.44;64.05;100164.78;5034559;27;129491;-86
2022/03/02 06:37:11;;;;;;;;;;;1.00;1.00;;;1.14;63.81;100160.41;4989091;27;129045;-86
2022/03/02 06:40:10;;;;;;;22.48;12.05;;;1.00;1.00;;;1.22;64.55;100161.91;5032212;27;118378;-86
2022/03/02 06:49:23;;;;;;;45.08;27.38;;;1.00;1.00;;;1.56;62.75;100159.44;5014704;27;128973;-86
2022/03/02 06:52:21;;;;;;;49.55;31.60;;;1.10;1.00;;;1.33;62.95;100161.09;5031289;27;118203;-85
2022/03/02 06:54:54;;;;;;;26.33;17.98;;;1.10;1.00;;;1.42;63.45;100162.34;5015399;27;115336;-86
2022/03/02 06:57:30;;;;;;;23.73;13.10;;;1.10;1.00;;;1.62;61.96;100158.47;5024075;27;127950;-86
2022/03/02 07:17:22;;;;;;;19.00;9.95;;;1.30;1.00;;;1.88;60.61;100150.97;4994712;27;118076;-86
2022/03/02 07:23:24;;;;;;;18.63;9.07;;;1.40;1.00;;;1.95;60.09;100139.06;5049904;27;129326;-85
2022/03/02 07:32:41;;;;;;;27.08;18.10;;;1.50;1.00;;;2.08;60.08;100132.63;5027542;27;113452;-86
2022/03/02 07:35:47;;;;;;;20.88;13.77;;;1.50;1.00;;;2.13;60.25;100132.69;5050729;27;128298;-86
2022/03/02 07:39:37;;;;;;;16.25;8.55;;;1.60;1.00;;;2.32;59.25;100127.97;5060404;27;129565;-85
2022/03/02 07:45:37;;;;;;;15.52;8.80;;;1.80;1.00;;;2.72;57.01;100128.88;5053642;27;114910;-87
2022/03/02 07:48:34;;;;;;;16.58;9.75;;;1.80;1.00;;;2.80;56.41;100130.34;5039318;27;129610;-86
2022/03/02 07:57:47;;;;;;;17.73;11.57;;;2.10;1.00;;;2.90;56.00;100110.91;5031963;27;115112;-86
2022/03/02 08:00:28;;;;;;;16.83;9.13;;;2.00;1.00;;;2.35;57.54;100115.94;5014046;27;130306;-86
2022/03/02 08:06:37;;;;;;;30.38;19.67;;;1.70;1.00;;;2.74;56.84;100091.91;5048371;27;117737;-87
2022/03/02 08:10:00;;;;;;;22.02;14.65;;;1.90;1.00;;;2.94;56.35;100090.59;5009345;27;114309;-88
2022/03/02 08:12:59;;;;;;;15.55;8.98;;;2.10;1.00;;;2.63;56.50;100098.19;5013600;27;129854;-87
2022/03/02 08:15:30;;;;;;;22.20;9.15;;;1.90;1.00;;;2.69;56.28;100089.16;4996128;27;129679;-85
2022/03/02 08:18:05;;;;;;;19.60;8.60;;;2.00;1.00;;;2.50;56.57;100086.72;5025020;27;117897;-87
2022/03/02 08:21:02;;;;;;;19.83;8.75;;;2.00;1.00;;;2.58;56.68;100087.38;5038155;27;114565;-88
2022/03/02 08:24:13;;;;;;;18.20;8.77;;;2.10;1.00;;;3.14;55.46;100090.88;5049193;27;129744;-88
2022/03/02 08:27:18;;;;;;;17.52;8.90;;;2.30;1.00;;;3.18;55.22;100081.28;5029836;27;129206;-87
2022/03/02 08:37:17;;;;;;;20.00;9.20;;;2.50;1.00;;;3.94;53.06;100064.47;5050878;27;129868;-85
2022/03/02 08:40:05;;;;;;;13.80;8.35;;;2.80;1.00;;;4.06;51.10;100058.13;5038329;27;128008;-86
2022/03/02 08:46:54;;;;;;;17.60;8.63;;;3.10;1.00;;;4.66;49.46;100065.06;5047204;27;114974;-86
2022/03/02 08:49:51;;;;;;;19.67;8.88;;;3.30;1.00;;;4.65;49.27;100066.13;5009333;27;128552;-86
2022/03/02 08:52:39;;;;;;;16.90;9.35;;;3.40;1.00;;;4.43;50.53;100058.16;5032813;27;103080;-85
2022/03/02 08:55:15;;;;;;;18.10;9.65;;;3.20;1.00;;;4.52;50.61;100049.63;5043928;27;118994;-86
2022/03/02 08:58:08;;;;;;;18.13;10.40;;;3.10;1.00;;;4.42;50.94;100051.16;5016571;27;113958;-85
2022/03/02 09:01:04;;;;;;;21.67;9.45;;;3.00;1.00;;;4.22;51.07;100041.03;5029065;27;130553;-85
2022/03/02 09:04:02;;;;;;;16.02;9.25;;;3.10;1.00;;;4.03;51.17;100037.94;5041720;27;129999;-86
2022/03/02 09:06:35;;;;;;;15.80;8.73;;;2.80;1.00;;;4.37;50.36;100035.00;5018789;27;118168;-87
2022/03/02 09:09:24;;;;;;;21.80;14.50;;;2.90;1.00;;;4.41;50.19;100032.59;5017882;27;114552;-87
2022/03/02 09:11:56;;;;;;;19.67;9.60;;;3.00;1.00;;;4.54;48.73;100029.47;5049906;27;129919;-86
2022/03/02 09:14:38;;;;;;;15.80;8.68;;;3.10;1.00;;;4.18;50.71;100029.22;5033281;27;129481;-86
2022/03/02 09:17:12;;;;;;;17.98;8.55;;;3.10;1.00;;;4.15;50.82;100029.72;5034307;27;118607;-85
2022/03/02 09:19:44;;;;;;;22.70;9.88;;;3.10;1.00;;;4.50;50.71;100023.81;5052021;27;114432;-85
2022/03/02 09:22:21;;;;;;;14.23;8.00;;;3.30;1.00;;;4.84;48.43;100020.00;5054223;27;129028;-86
2022/03/02 09:24:54;;;;;;;22.00;10.57;;;3.40;1.00;;;4.87;49.08;100019.47;5038576;27;127518;-86
2022/03/02 09:27:29;;;;;;;11.85;7.45;;;3.40;1.00;;;4.95;48.41;100013.59;5034035;27;118229;-87
2022/03/02 09:30:09;;;;;;;17.33;9.07;;;3.40;1.00;;;4.98;48.77;100010.38;5040249;27;114689;-86
2022/03/02 09:32:43;;;;;;;15.67;8.27;;;3.50;1.00;;;4.96;48.50;100015.22;5016683;27;129007;-87
2022/03/02 09:35:46;;;;;;;15.55;7.97;;;3.50;1.00;;;5.30;48.04;100008.63;5036848;27;128058;-85
2022/03/02 09:38:20;;;;;;;20.08;9.30;;;3.60;1.00;;;5.69;47.07;100006.31;5048653;27;119005;-86
2022/03/02 09:43:50;;;;;;;16.73;8.20;;;3.90;1.00;;;5.59;47.86;99995.50;5036557;27;129531;-86
2022/03/02 09:47:14;;;;;;;15.38;8.80;;;4.00;1.00;;;5.54;46.66;99996.31;5024427;27;128670;-86
2022/03/02 09:49:59;;;;;;;20.55;8.70;;;4.00;1.00;;;5.26;46.98;100002.97;5022447;27;118319;-87
2022/03/02 09:52:45;;;;;;;31.20;15.55;;;3.80;1.00;;;5.10;47.75;99995.91;5039094;27;115083;-86
2022/03/02 09:55:23;;;;;;;18.73;10.00;;;3.60;1.00;;;4.94;49.11;99993.16;5034069;27;129516;-86
2022/03/02 10:01:12;;;;;;;21.45;10.00;;;3.70;1.00;;;5.16;47.44;99979.53;5019279;27;117453;-86
2022/03/02 10:04:22;;;;;;;15.45;8.05;;;3.80;1.00;;;5.43;46.67;99975.03;5007670;27;115349;-85
2022/03/02 10:07:34;;;;;;;13.93;7.85;;;3.90;1.00;;;5.53;46.70;99969.66;5018185;27;129065;-86
2022/03/02 10:10:36;;;;;;;16.50;10.18;;;4.10;1.00;;;5.37;46.13;99968.81;5015726;27;128664;-85
2022/03/02 10:17:22;;;;;;;19.75;9.63;;;3.90;1.00;;;5.48;46.28;99965.06;5042524;27;114409;-86
2022/03/02 10:21:33;;;;;;;15.02;8.43;;;3.90;1.00;;;5.04;47.12;99952.03;5033509;27;130756;-87
2022/03/02 10:28:52;;;;;;;18.88;7.85;;;3.90;1.00;;;4.80;46.84;99940.91;5044344;27;118857;-86
2022/03/02 10:42:03;;;;;;;17.37;8.70;;;3.70;1.00;;;4.79;46.80;99931.22;5039397;27;118574;-87
2022/03/02 10:45:18;;;;;;;16.00;9.30;;;3.90;1.00;;;5.33;45.85;99925.47;5071718;27;115774;-85
2022/03/02 10:49:13;;;;;;;17.27;9.57;;;4.20;1.00;;;5.83;44.63;99927.66;5061318;27;130314;-85
2022/03/02 11:01:44;;;;;;;21.13;8.27;;;4.10;1.00;;;5.07;44.72;99907.66;5051315;27;129398;-87
2022/03/02 11:08:20;;;;;;;12.43;5.57;;;4.50;1.00;;;5.27;45.07;99902.31;5034361;27;117868;-86
2022/03/02 11:11:15;;;;;;;13.10;7.03;;;4.40;1.00;;;5.38;43.98;99889.69;5036387;27;113613;-85
2022/03/02 11:14:34;;;;;;;11.95;6.47;;;4.40;1.00;;;5.76;43.22;99883.00;5051710;27;129346;-86
2022/03/02 11:27:32;;;;;;;10.25;6.50;;;4.80;1.00;;;6.33;42.08;99864.06;5048164;27;130334;-86
2022/03/02 11:30:40;;;;;;;16.85;7.00;;;5.00;1.00;;;6.26;42.24;99858.13;5002439;27;128994;-86
2022/03/02 11:37:44;;;;;;;12.73;6.78;;;4.80;1.00;;;5.35;44.20;99850.66;5056741;27;115111;-85
2022/03/02 11:41:28;;;;;;;10.65;5.65;;;4.60;1.00;;;5.90;43.29;99842.03;5008098;27;129760;-85
2022/03/02 11:51:09;;;;;;;10.65;5.97;;;4.70;1.00;;;5.89;42.64;99852.00;5056128;27;114156;-85
2022/03/02 11:54:56;;;;;;;11.73;5.13;;;4.80;1.00;;;5.34;43.16;99850.94;5029004;27;129106;-86
2022/03/02 11:57:48;;;;;;;12.98;6.32;;;4.70;1.00;;;5.80;42.94;99848.25;5039761;27;129838;-84
2022/03/02 12:03:57;;;;;;;15.18;6.10;;;4.90;1.00;;;6.17;42.48;99836.34;5017930;28;113979;-85
2022/03/02 12:06:29;;;;;;;10.90;6.43;;;4.90;1.00;;;6.14;43.17;99831.50;5013691;28;129322;-85
2022/03/02 12:09:25;;;;;;;13.27;8.25;;;4.90;1.00;;;6.18;42.95;99820.97;4996043;28;128855;-84
2022/03/02 12:12:10;;;;;;;11.20;7.85;;;4.80;1.00;;;5.89;42.33;99829.63;5010394;28;118129;-85
2022/03/02 12:14:47;;;;;;;8.35;4.72;;;4.80;1.00;;;5.28;44.12;99817.81;5009935;28;113749;-86
2022/03/02 12:17:42;;;;;;;13.52;5.50;;;4.50;1.00;;;5.21;44.01;99825.34;4992562;28;129744;-85
2022/03/02 12:20:14;;;;;;;9.45;5.32;;;4.50;1.00;;;5.28;44.90;99814.31;4993909;28;128073;-87
2022/03/02 12:22:45;;;;;;;12.63;7.55;;;4.50;1.00;;;5.27;44.60;99812.72;4993487;28;117173;-85
2022/03/02 12:25:19;;;;;;;32.35;14.00;;;4.40;1.00;;;5.28;44.23;99804.34;5010979;28;114351;-86
2022/03/02 12:27:59;;;;;;;20.92;9.95;;;4.50;1.00;;;5.10;44.26;99802.22;5010869;28;128346;-86
2022/03/02 12:30:43;;;;;;;16.63;8.63;;;4.50;1.00;;;5.24;44.96;99797.91;5001107;28;129117;-87
2022/03/02 12:33:13;;;;;;;25.55;16.58;;;4.40;1.00;;;5.30;45.10;99807.59;4981983;28;117231;-87
2022/03/02 12:35:52;;;;;;;17.80;9.50;;;4.50;1.00;;;5.37;44.35;99797.34;5028098;28;115457;-87
2022/03/02 12:38:27;;;;;;;10.25;5.75;;;4.40;1.00;;;5.03;45.32;99799.75;4995663;28;129216;-88
2022/03/02 12:41:05;;;;;;;16.45;8.35;;;4.40;1.00;;;5.21;46.34;99793.06;4994844;28;128802;-87
2022/03/02 12:43:37;;;;;;;13.00;5.25;;;4.40;1.00;;;5.31;46.20;99786.88;4997631;28;118295;-86
2022/03/02 12:46:25;;;;;;;14.27;6.32;;;4.50;1.00;;;5.52;45.14;99787.69;5030043;27;115315;-86
2022/03/02 12:48:56;;;;;;;;;;;4.50;1.00;;;4.94;45.95;99786.06;4993008;28;130102;-85
2022/03/02 12:51:33;;;;;;;16.73;6.13;;;4.40;1.00;;;4.97;46.74;99776.63;5029115;28;128892;-88
2022/03/02 12:54:07;;;;;;;10.75;6.43;;;4.30;1.00;;;5.20;46.39;99769.91;5011444;28;118131;-86
2022/03/02 12:56:40;;;;;;;12.55;6.25;;;4.40;1.00;;;5.03;47.14;99770.16;4992874;28;114517;-87
2022/03/02 12:59:16;;;;;;;14.10;6.68;;;4.30;1.00;;;4.96;46.92;99770.44;4976991;28;128328;-88
2022/03/02 13:01:49;;;;;;;12.55;5.53;;;4.20;1.00;;;4.86;46.69;99759.66;5005446;28;129807;-88
2022/03/02 13:04:37;;;;;;;11.70;4.97;;;4.10;1.00;;;4.89;46.59;99764.50;4992216;28;118265;-86
2022/03/02 13:07:19;;;;;;;11.27;4.82;;;4.20;1.00;;;4.83;47.27;99762.88;4977193;28;114151;-86
2022/03/02 13:10:05;;;;;;;12.82;5.38;;;4.20;1.00;;;5.39;46.85;99757.53;4993556;28;129231;-90
2022/03/02 13:12:38;;;;;;;15.35;5.07;;;4.50;1.00;;;5.18;46.26;99750.56;4990238;28;129078;-86
2022/03/02 13:15:53;;;;;;;9.98;5.15;;;4.40;1.00;;;5.07;46.37;99743.56;4961016;28;118073;-85
2022/03/02 13:18:23;;;;;;;9.88;5.10;;;4.40;1.00;;;5.06;46.79;99741.94;4982616;28;113230;-85
2022/03/02 13:21:27;;;;;;;13.52;5.95;;;4.40;1.00;;;4.44;47.81;99745.34;4984618;28;128496;-87
2022/03/02 13:24:21;;;;;;;13.55;6.45;;;4.10;1.00;;;4.13;49.08;99731.00;5010336;28;128523;-86
2022/03/02 13:27:18;;;;;;;10.85;5.88;;;4.00;1.00;;;4.16;49.34;99730.47;4993967;28;117665;-85
2022/03/02 13:30:07;;;;;;;15.15;5.80;;;4.00;1.00;;;4.25;49.37;99728.88;4980787;28;114425;-85
2022/03/02 13:33:03;;;;;;;11.98;6.47;;;3.90;1.00;;;4.57;48.67;99717.16;5010812;28;128519;-86
2022/03/02 13:35:38;;;;;;;16.15;6.28;;;4.00;1.00;;;4.82;48.32;99716.38;4997669;28;129113;-88
2022/03/02 13:38:11;;;;;;;17.25;5.82;;;4.10;1.00;;;4.45;48.85;99708.53;4979720;28;117242;-85
2022/03/02 13:40:55;;;;;;;13.27;5.30;;;4.10;1.00;;;4.42;50.27;99706.38;5010584;28;115711;-85
2022/03/02 13:43:47;;;;;;;15.02;6.75;;;4.00;1.00;;;4.43;49.90;99708.00;4991763;28;129205;-88
2022/03/02 13:46:23;;;;;;;12.63;6.13;;;4.10;1.00;;;4.54;49.39;99704.25;4960400;28;129028;-86
2022/03/02 13:49:01;;;;;;;22.20;6.93;;;4.00;1.00;;;4.49;49.77;99696.19;5011880;28;116964;-87
2022/03/02 13:51:50;;;;;;;11.05;5.70;;;4.00;1.00;;;4.54;49.53;99696.19;4991887;28;114597;-86
2022/03/02 13:54:29;;;;;;;11.70;5.60;;;4.00;1.00;;;4.44;49.64;99704.22;4993691;28;128219;-85
2022/03/02 13:57:04;;;;;;;14.27;5.50;;;4.00;1.00;;;4.49;50.25;99704.25;5012496;28;128728;-87
2022/03/02 13:59:34;;;;;;;12.20;6.30;;;3.90;1.00;;;4.62;50.87;99694.84;5014692;28;117089;-87
2022/03/02 14:02:07;;;;;;;13.00;6.13;;;4.00;1.00;;;4.64;51.01;99696.22;5036063;27;114027;-88
2022/03/02 14:04:44;;;;;;;14.82;6.32;;;4.00;1.00;;;4.79;50.96;99689.22;5034383;27;129939;-88
2022/03/02 14:07:32;;;;;;;12.65;6.15;;;4.10;1.00;;;4.28;50.33;99685.34;5001793;27;127527;-87
2022/03/02 14:10:09;;;;;;;15.38;5.72;;;3.90;1.00;;;4.63;49.77;99691.88;5001659;27;118074;-88
2022/03/02 14:12:51;;;;;;;15.77;6.25;;;3.90;1.00;;;4.48;50.64;99687.28;5018912;27;114145;-86
2022/03/02 14:15:21;;;;;;;15.23;6.65;;;3.90;1.00;;;4.41;50.64;99683.25;5001417;27;129588;-87
2022/03/02 14:17:51;;;;;;;13.68;6.40;;;3.90;1.00;;;4.34;50.99;99680.03;5017903;27;128581;-86
2022/03/02 14:20:26;;;;;;;13.50;5.88;;;3.80;1.00;;;4.30;51.37;99675.19;5017640;27;116791;-85
2022/03/02 14:23:01;;;;;;;16.58;6.20;;;3.80;1.00;;;4.48;50.54;99673.06;5018114;27;113854;-87
2022/03/02 14:25:30;;;;;;;19.48;6.47;;;3.90;1.00;;;4.43;50.82;99670.38;5034461;27;129406;-88
2022/03/02 14:28:02;;;;;;;25.70;7.25;;;3.80;1.00;;;4.40;50.96;99668.22;5017778;27;129139;-86
2022/03/02 14:30:34;;;;;;;13.68;7.07;;;3.80;1.00;;;4.25;51.46;99664.41;5026327;27;118130;-85
2022/03/02 14:33:11;;;;;;;18.45;7.05;;;3.80;1.00;;;3.98;51.81;99663.81;5027089;27;115937;-86
2022/03/02 14:35:41;;;;;;;;;;;3.70;1.00;;;3.79;52.68;99653.53;5027375;27;128505;-85
2022/03/02 14:38:14;;;;;;;14.18;6.25;;;3.60;1.00;;;3.87;52.40;99653.03;5011146;27;129314;-86
2022/03/02 14:40:47;;;;;;;16.90;7.97;;;3.60;1.00;;;3.78;52.84;99649.22;5028120;27;118026;-85
2022/03/02 14:43:22;;;;;;;15.20;7.70;;;3.60;1.00;;;3.71;53.47;99664.75;5011587;27;114061;-86
2022/03/02 14:45:58;;;;;;;32.22;9.75;;;3.50;1.00;;;3.68;53.70;99659.94;5027656;27;129034;-85
2022/03/02 14:48:34;;;;;;;;;;;3.50;1.00;;;3.69;54.49;99656.16;4996270;27;128944;-85
2022/03/02 14:51:16;;;;;;;37.47;10.15;;;3.50;1.00;;;3.78;53.14;99651.91;5028170;27;118358;-85
2022/03/02 14:53:50;;;;;;;22.98;8.63;;;3.50;1.00;;;3.77;52.95;99651.13;5041653;27;115703;-84
2022/03/02 14:56:21;;;;;;;18.63;8.65;;;3.50;1.00;;;3.72;53.47;99650.28;5024594;27;129272;-85
2022/03/02 14:58:52;;;;;;;18.13;7.53;;;3.50;1.00;;;3.71;53.53;99648.66;5041783;27;129351;-86
2022/03/02 15:01:27;;;;;;;30.17;8.90;;;3.40;1.00;;;3.65;53.81;99649.72;5027178;27;117206;-85
2022/03/02 15:04:06;;;;;;;15.05;7.55;;;3.40;1.00;;;3.63;53.99;99651.84;5060038;27;114502;-85
2022/03/02 15:06:39;;;;;;;24.63;8.65;;;3.40;1.00;;;3.78;54.15;99646.53;5026601;27;129992;-87
2022/03/02 15:09:14;;;;;;;19.38;7.20;;;3.40;1.00;;;3.87;53.76;99647.66;5026875;27;128665;-85
2022/03/02 15:11:45;;;;;;;14.83;7.47;;;3.40;1.00;;;3.84;53.75;99642.81;5027171;27;116664;-85
2022/03/02 15:17:22;;;;;;;19.95;8.75;;;3.30;1.00;;;3.75;54.51;99644.38;5044255;27;130320;-85
2022/03/02 15:19:59;;;;;;;24.00;10.27;;;3.30;1.00;;;3.80;54.46;99639.03;5043208;27;129308;-84
2022/03/02 15:22:30;;;;;;;26.48;8.88;;;3.30;1.00;;;3.79;54.48;99634.75;5011108;27;117261;-86
2022/03/02 15:25:02;;;;;;;27.42;16.40;;;3.30;1.00;;;3.86;54.90;99635.28;5027123;27;113892;-87
2022/03/02 15:27:32;;;;;;;23.35;12.88;;;3.30;1.00;;;3.64;55.92;99632.00;5026605;27;128163;-85
2022/03/02 15:30:17;;;;;;;25.80;10.85;;;3.30;1.00;;;3.70;55.87;99630.94;5043693;27;128360;-84
2022/03/02 15:32:48;;;;;;;22.38;9.68;;;3.20;1.00;;;3.78;55.74;99628.53;5027041;27;116970;-85
2022/03/02 15:35:29;;;;;;;21.02;9.27;;;3.20;1.00;;;3.69;55.62;99635.47;5045539;27;112647;-85
2022/03/02 15:38:08;;;;;;;25.50;9.55;;;3.20;1.00;;;3.64;56.17;99624.75;5042400;27;128498;-87
2022/03/02 15:40:46;;;;;;;21.13;9.98;;;3.20;1.00;;;3.44;56.52;99628.13;5024184;27;128189;-86
2022/03/02 15:43:18;;;;;;;26.02;11.68;;;3.10;1.00;;;3.49;56.62;99620.13;5022414;27;118401;-87
2022/03/02 15:45:57;;;;;;;24.17;11.80;;;3.10;1.00;;;3.49;56.45;99617.44;5039615;27;114774;-84
2022/03/02 15:48:35;;;;;;;22.38;12.20;;;3.10;1.00;;;3.58;56.72;99617.72;5022580;27;128195;-84
2022/03/02 15:51:13;;;;;;;26.30;13.07;;;3.10;1.00;;;3.55;57.39;99611.03;5024573;27;129184;-85
2022/03/02 15:53:43;;;;;;;25.83;12.15;;;3.00;1.00;;;3.55;57.46;99619.09;5022551;27;117397;-85
2022/03/02 15:56:20;;;;;;;20.90;10.25;;;3.00;1.00;;;3.42;58.44;99622.22;5005746;27;115078;-86
2022/03/02 15:58:50;;;;;;;;;;;3.00;1.00;;;3.33;58.91;99618.44;5021268;27;129186;-86
2022/03/02 16:01:26;;;;;;;74.70;39.33;;;2.90;1.00;;;3.41;58.80;99607.19;5018377;27;129808;-86
2022/03/02 16:04:09;;;;;;;34.17;16.77;;;2.90;1.00;;;3.36;59.35;99615.22;5020549;27;117497;-86
2022/03/02 16:07:26;;;;;;;57.45;28.48;;;2.90;1.00;;;3.36;59.12;99607.97;5006283;27;114533;-85